createdAt,value
2019-02-11T00:02:25.596Z,6.00
2019-02-11T00:04:54.188Z,6.00
2019-02-11T00:07:22.705Z,6.00
2019-02-11T00:09:51.271Z,6.00
2019-02-11T00:12:19.718Z,6.00
2019-02-11T00:14:48.430Z,6.00
2019-02-11T00:17:16.875Z,6.00
2019-02-11T00:19:45.327Z,6.00
2019-02-11T00:22:13.806Z,6.00
2019-02-11T00:24:42.318Z,6.00
2019-02-11T00:27:10.803Z,5.90
2019-02-11T00:29:39.318Z,5.90
2019-02-11T00:32:07.862Z,5.90
2019-02-11T00:34:36.383Z,5.90
2019-02-11T00:37:04.918Z,6.00
2019-02-11T00:39:33.366Z,6.00
2019-02-11T00:42:01.843Z,5.90
2019-02-11T00:44:30.368Z,6.00
2019-02-11T00:46:59.178Z,5.90
2019-02-11T00:49:27.618Z,6.00
2019-02-11T00:51:56.070Z,5.90
2019-02-11T00:54:24.855Z,5.90
2019-02-11T00:56:53.299Z,5.90
2019-02-11T00:59:21.771Z,5.90
2019-02-11T01:01:50.219Z,5.90
2019-02-11T01:04:18.682Z,5.80
2019-02-11T01:06:47.130Z,5.80
2019-02-11T01:09:15.674Z,5.80
2019-02-11T01:11:44.409Z,5.80
2019-02-11T01:14:13.098Z,5.80
2019-02-11T01:16:41.986Z,5.70
2019-02-11T01:19:10.452Z,5.70
2019-02-11T01:21:38.987Z,5.70
2019-02-11T01:24:07.506Z,5.60
2019-02-11T01:26:36.250Z,5.60
2019-02-11T01:29:04.702Z,5.50
2019-02-11T01:31:33.174Z,5.40
2019-02-11T01:34:01.970Z,5.40
2019-02-11T01:36:30.751Z,5.40
2019-02-11T01:38:59.200Z,5.30
2019-02-11T01:41:28.027Z,5.30
2019-02-11T01:43:56.474Z,5.20
2019-02-11T01:46:25.019Z,5.20
2019-02-11T01:48:53.779Z,5.20
2019-02-11T01:51:22.562Z,5.10
2019-02-11T01:53:51.043Z,5.10
2019-02-11T01:56:19.496Z,5.00
2019-02-11T01:58:48.043Z,4.90
2019-02-11T02:01:16.491Z,4.90
2019-02-11T02:03:44.958Z,4.80
2019-02-11T02:06:13.406Z,4.80
2019-02-11T02:08:41.884Z,4.80
2019-02-11T02:11:10.328Z,4.70
2019-02-11T02:13:44.709Z,4.70
2019-02-11T02:16:09.039Z,4.60
2019-02-11T02:18:37.806Z,4.50
2019-02-11T02:21:06.250Z,4.50
2019-02-11T02:23:34.718Z,4.40
2019-02-11T02:26:03.164Z,4.30
2019-02-11T02:28:31.963Z,4.30
2019-02-11T02:31:00.411Z,4.30
2019-02-11T02:33:29.202Z,4.30
2019-02-11T02:35:57.661Z,4.30
2019-02-11T02:38:26.166Z,4.20
2019-02-11T02:40:54.642Z,4.20
2019-02-11T02:43:23.088Z,4.10
2019-02-11T02:45:51.626Z,4.00
2019-02-11T02:48:20.086Z,4.00
2019-02-11T02:50:48.626Z,4.00
2019-02-11T02:53:17.362Z,4.00
2019-02-11T02:55:45.833Z,3.90
2019-02-11T02:58:14.350Z,3.90
2019-02-11T03:00:42.888Z,3.90
2019-02-11T03:03:11.330Z,3.90
2019-02-11T03:05:39.885Z,3.90
2019-02-11T03:08:08.399Z,3.90
2019-02-11T03:10:36.847Z,3.90
2019-02-11T03:13:05.425Z,3.90
2019-02-11T03:15:34.306Z,3.80
2019-02-11T03:18:02.778Z,3.80
2019-02-11T03:20:31.222Z,3.80
2019-02-11T03:22:59.954Z,3.80
2019-02-11T03:25:28.771Z,3.80
2019-02-11T03:27:57.243Z,3.80
2019-02-11T03:30:25.692Z,3.70
2019-02-11T03:32:54.248Z,3.70
2019-02-11T03:35:22.758Z,3.70
2019-02-11T03:37:51.197Z,3.70
2019-02-11T03:40:19.667Z,3.70
2019-02-11T03:42:48.115Z,3.70
2019-02-11T03:45:16.730Z,3.60
2019-02-11T03:47:45.179Z,3.70
2019-02-11T03:50:13.792Z,3.70
2019-02-11T03:52:42.319Z,3.60
2019-02-11T03:55:11.349Z,3.60
2019-02-11T03:57:39.941Z,3.60
2019-02-11T04:00:13.086Z,3.60
2019-02-11T04:02:41.539Z,3.60
2019-02-11T04:05:10.165Z,3.60
2019-02-11T04:07:38.683Z,3.60
2019-02-11T04:10:09.850Z,3.50
2019-02-11T04:12:38.394Z,3.50
2019-02-11T04:15:08.596Z,3.50
2019-02-11T04:17:37.143Z,3.50
2019-02-11T04:20:07.637Z,3.40
2019-02-11T04:22:36.180Z,3.40
2019-02-11T04:25:06.241Z,3.40
2019-02-11T04:27:35.121Z,3.50
2019-02-11T04:30:04.116Z,3.50
2019-02-11T04:32:32.906Z,3.50
2019-02-11T04:35:01.393Z,3.50
2019-02-11T04:37:29.907Z,3.50
2019-02-11T04:39:58.381Z,3.50
2019-02-11T04:42:26.907Z,3.50
2019-02-11T04:44:55.382Z,3.50
2019-02-11T04:47:23.980Z,3.50
2019-02-11T04:49:53.447Z,3.50
2019-02-11T04:52:21.972Z,3.50
2019-02-11T04:54:50.501Z,3.60
2019-02-11T04:57:18.982Z,3.50
2019-02-11T04:59:47.859Z,3.50
2019-02-11T05:02:16.655Z,3.60
2019-02-11T05:04:45.170Z,3.60
2019-02-11T05:07:13.647Z,3.60
2019-02-11T05:09:42.476Z,3.60
2019-02-11T05:12:10.944Z,3.60
2019-02-11T05:14:43.757Z,3.60
2019-02-11T05:17:09.869Z,3.60
2019-02-11T05:19:38.397Z,3.60
2019-02-11T05:22:06.940Z,3.60
2019-02-11T05:24:35.397Z,3.60
2019-02-11T05:27:03.926Z,3.60
2019-02-11T05:29:32.470Z,3.60
2019-02-11T05:32:00.922Z,3.50
2019-02-11T05:34:29.470Z,3.50
2019-02-11T05:36:58.015Z,3.50
2019-02-11T05:39:26.559Z,3.50
2019-02-11T05:41:55.298Z,3.50
2019-02-11T05:44:23.851Z,3.50
2019-02-11T05:46:52.304Z,3.50
2019-02-11T05:49:20.843Z,3.50
2019-02-11T05:51:49.302Z,3.50
2019-02-11T05:54:17.777Z,3.50
2019-02-11T05:56:46.299Z,3.50
2019-02-11T05:59:14.771Z,3.50
2019-02-11T06:01:43.222Z,3.50
2019-02-11T06:04:11.771Z,3.50
2019-02-11T06:06:40.216Z,3.60
2019-02-11T06:09:08.662Z,3.50
2019-02-11T06:11:37.144Z,3.50
2019-02-11T06:14:05.670Z,3.50
2019-02-11T06:16:34.223Z,3.50
2019-02-11T06:19:02.670Z,3.50
2019-02-11T06:21:31.148Z,3.50
2019-02-11T06:23:59.679Z,3.50
2019-02-11T06:26:28.223Z,3.50
2019-02-11T06:28:56.746Z,3.50
2019-02-11T06:31:25.312Z,3.50
2019-02-11T06:33:53.758Z,3.50
2019-02-11T06:36:22.210Z,3.50
2019-02-11T06:38:50.761Z,3.50
2019-02-11T06:41:19.291Z,3.50
2019-02-11T06:43:47.839Z,3.60
2019-02-11T06:46:16.364Z,3.60
2019-02-11T06:48:44.911Z,3.50
2019-02-11T06:51:13.367Z,3.60
2019-02-11T06:53:41.838Z,3.60
2019-02-11T06:56:10.664Z,3.60
2019-02-11T06:58:39.137Z,3.60
2019-02-11T07:01:07.583Z,3.70
2019-02-11T07:03:36.063Z,3.70
2019-02-11T07:06:04.587Z,3.70
2019-02-11T07:08:33.048Z,3.70
2019-02-11T07:11:01.596Z,3.70
2019-02-11T07:13:30.491Z,3.70
2019-02-11T07:15:58.964Z,3.70
2019-02-11T07:18:27.490Z,3.80
2019-02-11T07:20:55.939Z,3.70
2019-02-11T07:23:24.411Z,3.70
2019-02-11T07:25:52.878Z,3.70
2019-02-11T07:28:21.424Z,3.80
2019-02-11T07:30:49.942Z,3.80
2019-02-11T07:33:18.391Z,3.80
2019-02-11T07:35:46.868Z,3.80
2019-02-11T07:38:15.319Z,3.80
2019-02-11T07:40:43.863Z,3.80
2019-02-11T07:43:16.764Z,3.80
2019-02-11T07:45:49.859Z,3.80
2019-02-11T07:48:18.439Z,3.80
2019-02-11T07:50:46.963Z,3.80
2019-02-11T07:53:15.675Z,3.80
2019-02-11T07:55:44.153Z,3.80
2019-02-11T07:58:12.599Z,3.80
2019-02-11T08:00:41.143Z,3.90
2019-02-11T08:03:09.598Z,3.90
2019-02-11T08:05:38.155Z,3.90
2019-02-11T08:08:06.672Z,4.00
2019-02-11T08:10:35.124Z,4.10
2019-02-11T08:13:03.662Z,4.10
2019-02-11T08:15:38.387Z,4.20
2019-02-11T08:18:02.379Z,4.30
2019-02-11T08:20:30.907Z,4.40
2019-02-11T08:22:59.457Z,4.30
2019-02-11T08:25:28.171Z,4.20
2019-02-11T08:27:56.650Z,4.10
2019-02-11T08:30:25.097Z,4.10
2019-02-11T08:32:53.547Z,4.20
2019-02-11T08:35:22.024Z,4.30
2019-02-11T08:37:50.803Z,4.60
2019-02-11T08:40:19.275Z,4.70
2019-02-11T08:42:47.818Z,4.70
2019-02-11T08:45:16.297Z,4.60
2019-02-11T08:47:45.079Z,4.60
2019-02-11T08:50:13.998Z,4.50
2019-02-11T08:52:42.538Z,4.40
2019-02-11T08:55:11.122Z,4.30
2019-02-11T08:57:39.677Z,4.20
2019-02-11T09:00:10.337Z,4.20
2019-02-11T09:02:39.695Z,4.20
2019-02-11T09:05:08.722Z,4.10
2019-02-11T09:07:37.271Z,4.10
2019-02-11T09:10:09.033Z,4.10
2019-02-11T09:12:37.512Z,4.10
2019-02-11T09:15:09.471Z,4.20
2019-02-11T09:17:38.374Z,4.10
2019-02-11T09:20:09.668Z,4.10
2019-02-11T09:22:38.260Z,4.10
2019-02-11T09:25:09.673Z,4.20
2019-02-11T09:27:38.193Z,4.20
2019-02-11T09:30:12.355Z,4.20
2019-02-11T09:32:40.907Z,4.20
2019-02-11T09:35:09.491Z,4.30
2019-02-11T09:37:37.967Z,4.30
2019-02-11T09:40:09.983Z,4.30
2019-02-11T09:42:38.468Z,4.40
2019-02-11T09:45:12.970Z,4.40
2019-02-11T09:47:41.418Z,4.40
2019-02-11T09:50:15.983Z,4.50
2019-02-11T09:52:44.571Z,4.60
2019-02-11T09:55:16.361Z,4.70
2019-02-11T09:57:44.969Z,4.80
2019-02-11T10:00:13.626Z,4.70
2019-02-11T10:02:42.143Z,4.80
2019-02-11T10:05:10.754Z,4.80
2019-02-11T10:07:39.247Z,4.80
2019-02-11T10:10:09.498Z,4.80
2019-02-11T10:12:38.087Z,4.90
2019-02-11T10:15:09.707Z,5.00
2019-02-11T10:17:38.183Z,5.20
2019-02-11T10:20:09.743Z,5.30
2019-02-11T10:22:38.331Z,5.30
2019-02-11T10:25:18.060Z,5.30
2019-02-11T10:27:46.579Z,5.40
2019-02-11T10:30:15.526Z,5.50
2019-02-11T10:32:44.260Z,5.60
2019-02-11T10:35:14.372Z,6.90
2019-02-11T10:37:42.819Z,8.10
2019-02-11T10:40:13.103Z,9.50
2019-02-11T10:42:41.555Z,9.10
2019-02-11T10:45:12.839Z,8.30
2019-02-11T10:47:43.127Z,7.70
2019-02-11T10:50:13.643Z,7.20
2019-02-11T10:52:42.100Z,6.90
2019-02-11T10:55:12.670Z,6.50
2019-02-11T10:57:41.392Z,6.40
2019-02-11T11:00:12.779Z,6.10
2019-02-11T11:02:41.328Z,5.90
2019-02-11T11:05:13.690Z,5.80
2019-02-11T11:07:42.242Z,5.70
2019-02-11T11:10:22.119Z,5.70
2019-02-11T11:12:50.939Z,5.70
2019-02-11T11:15:19.627Z,6.30
2019-02-11T11:17:48.438Z,7.00
2019-02-11T11:20:18.223Z,7.90
2019-02-11T11:22:47.222Z,7.60
2019-02-11T11:25:17.617Z,7.30
2019-02-11T11:27:46.207Z,6.80
2019-02-11T11:30:18.883Z,6.50
2019-02-11T11:32:47.777Z,6.30
2019-02-11T11:35:17.466Z,6.20
2019-02-11T11:37:46.295Z,6.20
2019-02-11T11:40:22.843Z,6.20
2019-02-11T11:42:51.434Z,6.20
2019-02-11T11:45:20.821Z,6.20
2019-02-11T11:47:49.771Z,6.30
2019-02-11T11:50:18.562Z,6.60
2019-02-11T11:52:47.541Z,7.60
2019-02-11T11:55:19.187Z,9.40
2019-02-11T11:57:47.715Z,10.50
2019-02-11T12:00:19.464Z,11.30
2019-02-11T12:03:00.179Z,11.90
2019-02-11T12:05:18.495Z,11.50
2019-02-11T12:07:47.093Z,10.90
2019-02-11T12:10:15.633Z,9.70
2019-02-11T12:12:44.249Z,9.00
2019-02-11T12:15:15.502Z,8.60
2019-02-11T12:17:45.559Z,8.50
2019-02-11T12:20:15.410Z,8.60
2019-02-11T12:22:44.149Z,8.60
2019-02-11T12:25:14.844Z,8.50
2019-02-11T12:27:43.381Z,8.50
2019-02-11T12:30:20.591Z,8.80
2019-02-11T12:32:49.183Z,9.00
2019-02-11T12:35:17.734Z,9.20
2019-02-11T12:37:46.329Z,9.50
2019-02-11T12:40:14.919Z,9.80
2019-02-11T12:42:43.607Z,9.90
2019-02-11T12:45:15.047Z,9.70
2019-02-11T12:47:43.667Z,9.30
2019-02-11T12:50:14.258Z,9.30
2019-02-11T12:52:42.782Z,9.00
2019-02-11T12:55:13.377Z,8.60
2019-02-11T12:57:41.929Z,8.50
2019-02-11T13:00:24.557Z,8.40
2019-02-11T13:02:53.092Z,8.10
2019-02-11T13:05:23.874Z,7.90
2019-02-11T13:07:51.906Z,7.80
2019-02-11T13:10:20.645Z,7.60
2019-02-11T13:12:49.447Z,7.40
2019-02-11T13:15:53.258Z,7.40
2019-02-11T13:17:49.605Z,7.60
2019-02-11T13:20:18.900Z,7.90
2019-02-11T13:22:47.833Z,8.00
2019-02-11T13:25:17.591Z,8.00
2019-02-11T13:27:46.295Z,8.10
2019-02-11T13:30:25.186Z,8.50
2019-02-11T13:32:53.716Z,9.00
2019-02-11T13:35:22.257Z,8.80
2019-02-11T13:37:54.514Z,8.70
2019-02-11T13:40:20.972Z,8.50
2019-02-11T13:42:49.571Z,8.30
2019-02-11T13:45:20.021Z,8.10
2019-02-11T13:47:54.922Z,8.00
2019-02-11T13:50:28.644Z,7.80
2019-02-11T13:52:57.678Z,7.60
2019-02-11T13:55:30.723Z,7.60
2019-02-11T13:57:57.550Z,7.50
2019-02-11T14:00:28.587Z,7.40
2019-02-11T14:02:58.960Z,7.30
2019-02-11T14:05:28.632Z,7.20
2019-02-11T14:08:00.030Z,7.10
2019-02-11T14:10:29.218Z,7.00
2019-02-11T14:12:58.109Z,6.90
2019-02-11T14:15:26.875Z,6.90
2019-02-11T14:18:10.778Z,6.80
2019-02-11T14:20:27.005Z,6.60
2019-02-11T14:22:55.564Z,6.60
2019-02-11T14:25:41.029Z,6.60
2019-02-11T14:27:54.352Z,6.60
2019-02-11T14:30:23.006Z,6.60
2019-02-11T14:32:51.616Z,6.60
2019-02-11T14:35:20.982Z,6.50
2019-02-11T14:37:49.634Z,6.50
2019-02-11T14:40:18.214Z,6.40
2019-02-11T14:42:46.855Z,6.40
2019-02-11T14:45:20.417Z,6.30
2019-02-11T14:47:48.974Z,6.40
2019-02-11T14:50:17.479Z,6.30
2019-02-11T14:52:46.050Z,6.30
2019-02-11T14:55:14.618Z,6.30
2019-02-11T14:57:43.095Z,6.30
2019-02-11T15:00:15.601Z,6.30
2019-02-11T15:02:44.447Z,6.20
2019-02-11T15:05:14.575Z,6.30
2019-02-11T15:07:43.433Z,6.20
2019-02-11T15:10:12.891Z,6.20
2019-02-11T15:12:41.480Z,6.20
2019-02-11T15:15:11.269Z,6.20
2019-02-11T15:17:41.683Z,6.20
2019-02-11T15:20:12.068Z,6.20
2019-02-11T15:22:40.592Z,6.20
2019-02-11T15:25:11.779Z,6.20
2019-02-11T15:27:40.371Z,6.20
2019-02-11T15:30:13.872Z,6.20
2019-02-11T15:32:42.486Z,6.10
2019-02-11T15:35:11.405Z,6.10
2019-02-11T15:37:39.945Z,6.10
2019-02-11T15:40:11.776Z,6.10
2019-02-11T15:42:40.392Z,6.10
2019-02-11T15:45:11.915Z,6.10
2019-02-11T15:47:40.386Z,6.10
2019-02-11T15:50:14.462Z,6.10
2019-02-11T15:52:43.379Z,6.10
2019-02-11T15:55:20.121Z,6.10
2019-02-11T15:57:48.651Z,6.20
2019-02-11T16:00:19.235Z,6.20
2019-02-11T16:02:47.938Z,6.10
2019-02-11T16:05:16.892Z,6.10
2019-02-11T16:07:46.039Z,6.10
2019-02-11T16:10:16.904Z,6.10
2019-02-11T16:12:45.385Z,6.10
2019-02-11T16:15:13.989Z,6.10
2019-02-11T16:17:42.532Z,6.10
2019-02-11T16:20:14.525Z,6.10
2019-02-11T16:22:43.236Z,6.10
2019-02-11T16:25:13.823Z,6.10
2019-02-11T16:27:42.345Z,6.10
2019-02-11T16:30:13.512Z,6.10
2019-02-11T16:32:41.966Z,6.10
2019-02-11T16:35:12.123Z,6.10
2019-02-11T16:37:40.741Z,6.10
2019-02-11T16:40:15.417Z,6.10
2019-02-11T16:42:43.872Z,6.10
2019-02-11T16:45:12.567Z,6.10
2019-02-11T16:47:41.096Z,6.10
2019-02-11T16:50:12.919Z,6.10
2019-02-11T16:52:41.395Z,6.10
2019-02-11T16:55:11.355Z,6.10
2019-02-11T16:57:39.826Z,6.10
2019-02-11T17:00:17.360Z,6.10
2019-02-11T17:02:45.905Z,6.10
2019-02-11T17:05:14.892Z,6.10
2019-02-11T17:07:43.593Z,6.00
2019-02-11T17:10:13.623Z,6.00
2019-02-11T17:12:42.363Z,6.00
2019-02-11T17:15:16.537Z,6.00
2019-02-11T17:17:45.147Z,5.90
2019-02-11T17:20:15.137Z,5.90
2019-02-11T17:22:44.019Z,5.80
2019-02-11T17:25:13.348Z,5.80
2019-02-11T17:27:42.298Z,5.70
2019-02-11T17:30:13.523Z,5.70
2019-02-11T17:32:41.982Z,5.60
2019-02-11T17:35:10.897Z,5.60
2019-02-11T17:37:39.354Z,5.60
2019-02-11T17:40:13.876Z,5.50
2019-02-11T17:42:42.407Z,5.50
2019-02-11T17:45:22.972Z,5.50
2019-02-11T17:47:51.423Z,5.40
2019-02-11T17:50:20.083Z,5.30
2019-02-11T17:52:49.995Z,5.30
2019-02-11T17:55:18.522Z,5.30
2019-02-11T17:57:47.072Z,5.20
2019-02-11T18:00:32.143Z,5.20
2019-02-11T18:03:00.624Z,5.20
2019-02-11T18:05:29.284Z,5.20
2019-02-11T18:07:57.735Z,5.20
2019-02-11T18:10:26.279Z,5.20
2019-02-11T18:12:54.727Z,5.30
2019-02-11T18:15:23.268Z,5.30
2019-02-11T18:17:51.719Z,5.20
2019-02-11T18:20:20.339Z,5.30
2019-02-11T18:22:48.789Z,5.30
2019-02-11T18:25:17.594Z,5.30
2019-02-11T18:27:46.480Z,5.30
2019-02-11T18:30:16.499Z,5.30
2019-02-11T18:32:45.060Z,5.30
2019-02-11T18:35:15.520Z,5.30
2019-02-11T18:37:44.295Z,5.30
2019-02-11T18:40:15.988Z,5.30
2019-02-11T18:42:44.512Z,5.30
2019-02-11T18:45:16.896Z,5.30
2019-02-11T18:47:45.591Z,5.30
2019-02-11T18:50:15.083Z,5.30
2019-02-11T18:52:43.802Z,5.30
2019-02-11T18:55:20.516Z,5.30
2019-02-11T18:57:49.107Z,5.30
2019-02-11T19:00:20.560Z,5.30
2019-02-11T19:02:50.104Z,5.30
2019-02-11T19:05:18.927Z,5.20
2019-02-11T19:07:47.523Z,5.20
2019-02-11T19:10:19.610Z,5.20
2019-02-11T19:12:48.063Z,5.20
2019-02-11T19:15:17.856Z,5.20
2019-02-11T19:17:46.398Z,5.20
2019-02-11T19:20:17.164Z,5.20
2019-02-11T19:22:45.692Z,5.20
2019-02-11T19:25:14.383Z,5.10
2019-02-11T19:27:42.903Z,5.10
2019-02-11T19:30:21.017Z,5.10
2019-02-11T19:32:49.726Z,5.10
2019-02-11T19:35:18.303Z,5.00
2019-02-11T19:37:47.172Z,5.00
2019-02-11T19:40:20.270Z,5.00
2019-02-11T19:42:48.935Z,4.90
2019-02-11T19:45:22.392Z,4.90
2019-02-11T19:47:50.976Z,4.80
2019-02-11T19:50:19.600Z,4.80
2019-02-11T19:52:48.809Z,4.80
2019-02-11T19:55:17.632Z,4.80
2019-02-11T19:57:46.491Z,4.80
2019-02-11T20:00:19.806Z,4.70
2019-02-11T20:02:49.126Z,4.70
2019-02-11T20:05:17.713Z,4.70
2019-02-11T20:07:46.461Z,4.60
2019-02-11T20:10:17.595Z,4.60
2019-02-11T20:12:46.220Z,4.60
2019-02-11T20:15:17.418Z,4.60
2019-02-11T20:17:46.000Z,4.50
2019-02-11T20:20:17.169Z,4.50
2019-02-11T20:22:45.759Z,4.50
2019-02-11T20:25:14.451Z,4.40
2019-02-11T20:27:43.051Z,4.40
2019-02-11T20:30:14.607Z,4.40
2019-02-11T20:32:43.377Z,4.40
2019-02-11T20:35:12.063Z,4.40
2019-02-11T20:37:40.511Z,4.30
2019-02-11T20:40:11.996Z,4.30
2019-02-11T20:42:40.448Z,4.30
2019-02-11T20:45:14.243Z,4.20
2019-02-11T20:47:42.796Z,4.20
2019-02-11T20:50:12.240Z,4.20
2019-02-11T20:52:40.859Z,4.10
2019-02-11T20:55:13.867Z,4.10
2019-02-11T20:57:43.381Z,4.10
2019-02-11T21:00:17.335Z,4.10
2019-02-11T21:02:45.819Z,4.00
2019-02-11T21:05:14.508Z,4.00
2019-02-11T21:07:43.388Z,4.00
2019-02-11T21:10:14.852Z,4.00
2019-02-11T21:12:43.390Z,3.90
2019-02-11T21:15:14.077Z,3.90
2019-02-11T21:17:42.747Z,3.80
2019-02-11T21:20:20.036Z,3.90
2019-02-11T21:22:48.715Z,3.80
2019-02-11T21:25:17.319Z,3.70
2019-02-11T21:27:45.771Z,3.70
2019-02-11T21:30:15.260Z,3.70
2019-02-11T21:32:43.807Z,3.70
2019-02-11T21:35:12.998Z,3.60
2019-02-11T21:37:41.619Z,3.70
2019-02-11T21:40:10.275Z,3.70
2019-02-11T21:42:38.823Z,3.70
2019-02-11T21:45:10.392Z,3.60
2019-02-11T21:47:39.263Z,3.60
2019-02-11T21:50:10.866Z,3.60
2019-02-11T21:52:39.630Z,3.60
2019-02-11T21:55:11.420Z,3.60
2019-02-11T21:57:39.956Z,3.50
2019-02-11T22:00:11.587Z,3.50
2019-02-11T22:02:40.121Z,3.50
2019-02-11T22:05:08.811Z,3.40
2019-02-11T22:07:37.439Z,3.40
2019-02-11T22:10:09.040Z,3.40
2019-02-11T22:12:37.511Z,3.40
2019-02-11T22:15:07.402Z,3.30
2019-02-11T22:17:36.126Z,3.30
2019-02-11T22:20:07.464Z,3.20
2019-02-11T22:22:35.938Z,3.20
2019-02-11T22:25:05.920Z,3.20
2019-02-11T22:27:34.727Z,3.20
2019-02-11T22:30:03.827Z,3.20
2019-02-11T22:32:32.280Z,3.20
2019-02-11T22:35:00.831Z,3.20
2019-02-11T22:37:29.288Z,3.20
2019-02-11T22:39:57.839Z,3.20
2019-02-11T22:42:26.355Z,3.20
2019-02-11T22:44:54.806Z,3.20
2019-02-11T22:47:23.281Z,3.20
2019-02-11T22:49:51.736Z,3.20
2019-02-11T22:52:20.288Z,3.20
2019-02-11T22:54:48.819Z,3.30
2019-02-11T22:57:17.308Z,3.30
2019-02-11T22:59:45.756Z,3.40
2019-02-11T23:02:14.379Z,3.40
2019-02-11T23:04:42.908Z,3.50
2019-02-11T23:07:11.385Z,3.50
2019-02-11T23:09:39.916Z,3.60
2019-02-11T23:12:08.438Z,3.60
2019-02-11T23:14:37.082Z,3.60
2019-02-11T23:17:05.536Z,3.60
2019-02-11T23:19:34.024Z,3.70
2019-02-11T23:22:02.548Z,3.70
2019-02-11T23:24:30.999Z,3.60
2019-02-11T23:26:59.479Z,3.70
2019-02-11T23:29:28.016Z,3.70
2019-02-11T23:31:56.496Z,3.70
2019-02-11T23:34:25.379Z,3.70
2019-02-11T23:36:53.915Z,3.70
2019-02-11T23:39:22.439Z,3.70
2019-02-11T23:41:50.896Z,3.70
2019-02-11T23:44:19.803Z,3.70
2019-02-11T23:46:48.262Z,3.70
2019-02-11T23:49:16.810Z,3.70
2019-02-11T23:51:45.551Z,3.70
2019-02-11T23:54:14.035Z,3.70
2019-02-11T23:56:42.483Z,3.70
2019-02-11T23:59:10.960Z,3.70
